Latest Weather Observations for Halls Creek

IDW60801

Issued at 3:05 pm WST Monday 21 April 2014 (issued every 30 minutes, with the page automatically refreshed every 10 minutes)

About weather observations | Map of weather stations | Latest weather observations for WA | Other Formats
Station Details ID: 002012 Name: HALLS CREEK AIRPORT Lat: -18.23 Lon: 127.66 Height: 422.0 m
Data from the previous 72 hours. | See also: Recent months at Halls Creek
Date/Time
WST
Temp
°C
App
Temp
°C
Dew
Point
Rel
Hum
%
Delta-T
°C
Wind Press
QNH
hPa
Press
MSL
hPa
Rain
since 9 am
mm
Dir
 
Spd
km/h
Gust
km/h
Spd
kts
Gust
kts
21/03:00pm 31.7 28.8 2.6 15 15.0 ESE 7 17 4 9 1012.8 - 0.0
21/02:30pm 32.4 30.3 3.7 16 15.1 N 4 13 2 7 1012.8 - 0.0
21/02:00pm 31.8 28.6 2.8 16 15.0 E 9 15 5 8 1012.9 - 0.0
21/01:30pm 31.9 29.1 3.0 16 15.0 NNE 7 17 4 9 1012.9 - 0.0
21/01:00pm 32.7 29.9 3.3 15 15.4 SE 7 15 4 8 1013.2 - 0.0
21/12:30pm 31.9 29.8 4.1 17 14.7 E 4 9 2 5 1013.4 - 0.0
21/12:00pm 31.1 28.0 1.5 15 14.9 NE 7 20 4 11 1013.7 1011.0 0.0
21/11:30am 31.8 28.7 3.5 16 14.8 E 9 19 5 10 1014.1 - 0.0
21/11:00am 30.6 27.2 1.9 16 14.5 ENE 9 19 5 10 1014.7 - 0.0
21/10:30am 30.7 26.8 0.9 15 14.8 E 11 19 6 10 1015.3 - 0.0
21/10:00am 30.3 26.7 2.7 17 14.1 E 11 19 6 10 1015.8 - 0.0
21/09:30am 29.5 27.1 5.2 21 12.9 E 7 15 4 8 1016.3 - 0.0
21/09:00am 28.1 26.0 5.7 24 11.9 E 6 15 3 8 1016.5 1013.8 0.0
21/08:30am 27.0 24.6 5.2 24 11.4 E 7 11 4 6 1016.6 - 0.0
21/08:00am 25.5 23.5 6.4 29 10.1 ESE 6 9 3 5 1016.4 - 0.0
21/07:30am 23.2 21.8 7.4 36 8.4 ESE 4 7 2 4 1016.1 - 0.0
21/07:00am 21.5 20.9 8.9 44 6.8 ESE 2 4 1 2 1016.0 - 0.0
21/06:30am 19.2 19.1 9.4 53 5.3 CALM 0 2 0 1 1015.7 - 0.0
21/06:00am 17.1 16.4 8.7 57 4.4 NNE 2 6 1 3 1015.4 1012.6 0.0
21/05:30am 15.8 15.0 9.8 67 3.2 NNW 4 9 2 5 1014.8 - 0.0
21/05:00am 16.0 16.1 10.2 68 3.1 CALM 0 2 0 1 1014.5 - 0.0
21/04:30am 16.3 16.0 10.0 66 3.4 E 2 4 1 2 1014.3 - 0.0
21/04:00am 17.3 17.0 8.8 57 4.5 CALM 0 4 0 2 1014.0 - 0.0
21/03:30am 17.2 16.4 8.2 55 4.7 SSW 2 4 1 2 1014.0 - 0.0
21/03:00am 16.8 16.2 10.3 65 3.5 S 4 4 2 2 1013.9 1011.2 0.0
21/02:30am 18.1 17.5 9.1 55 4.8 NNW 2 4 1 2 1013.8 - 0.0
21/02:00am 18.9 17.6 7.8 48 5.8 WNW 4 6 2 3 1013.9 - 0.0
21/01:30am 19.2 18.6 7.5 46 6.1 CALM 0 4 0 2 1014.0 - 0.0
21/01:00am 19.2 18.2 7.5 46 6.1 SW 2 2 1 1 1014.0 - 0.0
21/12:30am 19.8 19.3 7.8 46 6.3 CALM 0 0 0 0 1014.2 - 0.0
21/12:00am 20.4 19.8 7.4 43 6.8 NNE 0 2 0 1 1014.4 1011.7 0.0
 
Date/Time
WST
Temp
°C
App
Temp
°C
Dew
Point
Rel
Hum
%
Delta-T
°C
Wind Press
QNH
hPa
Press
MSL
hPa
Rain
since 9 am
mm
Dir
 
Spd
km/h
Gust
km/h
Spd
kts
Gust
kts
20/11:30pm 20.8 20.3 7.7 42 6.9 CALM 0 2 0 1 1014.6 - 0.0
20/11:00pm 21.2 20.2 7.3 40 7.3 E 2 2 1 1 1014.7 - 0.0
20/10:30pm 21.6 20.7 7.6 40 7.4 ESE 2 2 1 1 1014.8 - 0.0
20/10:00pm 22.1 21.2 7.8 39 7.6 ENE 2 4 1 2 1014.8 - 0.0
20/09:30pm 22.6 21.2 7.3 37 8.1 ENE 4 7 2 4 1014.8 - 0.0
20/09:00pm 22.9 21.6 7.7 37 8.1 SSE 4 7 2 4 1014.8 1012.1 0.0
20/08:30pm 23.2 21.6 6.3 33 8.8 S 4 6 2 3 1015.1 - 0.0
20/08:00pm 22.8 22.0 8.1 39 7.9 E 2 7 1 4 1014.8 - 0.0
20/07:30pm 23.1 22.1 7.5 36 8.3 NW 2 4 1 2 1014.4 - 0.0
20/07:00pm 25.0 23.4 6.2 30 9.9 NW 4 7 2 4 1014.2 - 0.0
20/06:30pm 25.2 24.0 7.9 33 9.4 NNW 4 6 2 3 1013.9 - 0.0
20/06:00pm 26.2 24.5 5.9 27 10.7 NNW 4 6 2 3 1013.7 1011.0 0.0
20/05:30pm 27.2 26.4 8.1 30 10.5 NNW 2 4 1 2 1013.4 - 0.0
20/05:00pm 28.9 27.1 5.6 23 12.4 NNW 4 7 2 4 1013.1 - 0.0
20/04:30pm 29.9 27.2 2.6 17 13.9 E 6 11 3 6 1012.8 - 0.0
20/04:00pm 30.8 28.7 3.8 18 14.1 SE 4 9 2 5 1012.6 - 0.0
20/03:30pm 31.0 28.0 1.7 15 14.8 E 7 17 4 9 1012.4 - 0.0
20/03:00pm 31.7 29.9 3.3 16 14.8 SSW 2 6 1 3 1012.2 1009.5 0.0
20/02:30pm 31.5 28.6 1.7 15 15.1 ENE 6 17 3 9 1012.2 - 0.0
20/02:00pm 31.2 28.2 2.2 15 14.8 ESE 7 19 4 10 1012.3 - 0.0
20/01:30pm 31.4 28.6 1.9 15 15.0 SSE 6 15 3 8 1012.6 - 0.0
20/01:00pm 31.2 28.4 2.2 15 14.8 NE 6 11 3 6 1013.0 - 0.0
20/12:30pm 31.5 28.6 2.8 16 14.8 SE 7 17 4 9 1013.3 - 0.0
20/12:00pm 30.7 28.0 2.5 16 14.4 ENE 6 13 3 7 1013.9 1011.2 0.0
20/11:30am 30.1 27.1 1.9 16 14.2 ESE 7 19 4 10 1014.3 - 0.0
20/11:00am 30.7 26.8 0.9 15 14.8 ESE 11 20 6 11 1014.8 - 0.0
20/10:30am 30.1 26.3 1.9 16 14.2 E 11 20 6 11 1015.3 - 0.0
20/10:00am 29.7 26.0 2.5 17 13.8 ESE 11 19 6 10 1015.8 - 0.0
20/09:30am 28.6 25.3 2.3 18 13.2 E 9 20 5 11 1016.2 - 0.0
20/09:00am 27.4 24.0 1.9 19 12.6 E 9 17 5 9 1016.2 1013.5 0.0
20/08:30am 25.9 21.8 2.1 21 11.7 ESE 13 20 7 11 1016.3 - 0.0
20/08:00am 25.1 21.9 2.9 23 11.0 ESE 9 17 5 9 1015.9 - 0.0
20/07:30am 23.7 21.0 3.9 27 9.9 ESE 7 15 4 8 1016.0 - 0.0
20/07:00am 21.8 20.1 6.1 36 8.1 ESE 4 9 2 5 1015.9 - 0.0
20/06:30am 20.1 18.9 6.4 41 7.0 E 2 6 1 3 1015.7 - 0.0
20/06:00am 17.9 16.8 6.9 48 5.6 ESE 2 4 1 2 1015.4 1012.6 0.0
20/05:30am 18.0 16.8 6.3 46 5.9 SSW 2 4 1 2 1014.9 - 0.0
20/05:00am 17.2 16.6 7.5 53 5.0 CALM 0 2 0 1 1014.9 - 0.0
20/04:30am 17.3 16.5 8.1 54 4.8 NE 2 4 1 2 1014.6 - 0.0
20/04:00am 18.0 16.9 7.1 49 5.6 WNW 2 4 1 2 1014.4 - 0.0
20/03:30am 18.9 17.6 5.8 42 6.6 S 2 4 1 2 1014.3 - 0.0
20/03:00am 18.8 17.5 6.1 43 6.4 SE 2 4 1 2 1014.2 1011.5 0.0
20/02:30am 18.6 17.4 6.6 45 6.1 SE 2 4 1 2 1014.4 - 0.0
20/02:00am 18.9 17.9 7.3 47 6.0 S 2 4 1 2 1014.4 - 0.0
20/01:30am 19.2 18.4 6.7 44 6.4 CALM 0 2 0 1 1014.5 - 0.0
20/01:00am 19.5 18.3 6.4 42 6.7 SE 2 6 1 3 1014.6 - 0.0
20/12:30am 20.3 18.7 6.2 40 7.2 ESE 4 6 2 3 1014.8 - 0.0
20/12:00am 20.4 19.2 6.4 40 7.2 SE 2 4 1 2 1014.9 1012.2 0.0
 
Date/Time
WST
Temp
°C
App
Temp
°C
Dew
Point
Rel
Hum
%
Delta-T
°C
Wind Press
QNH
hPa
Press
MSL
hPa
Rain
since 9 am
mm
Dir
 
Spd
km/h
Gust
km/h
Spd
kts
Gust
kts
19/11:30pm 20.9 19.8 7.1 40 7.2 E 2 4 1 2 1015.3 - 0.0
19/11:00pm 21.1 20.0 6.9 39 7.4 E 2 4 1 2 1015.4 - 0.0
19/10:30pm 21.8 20.1 6.1 36 8.1 E 4 6 2 3 1015.5 - 0.0
19/10:00pm 22.2 20.5 6.1 35 8.3 ESE 4 7 2 4 1015.5 - 0.0
19/09:30pm 21.9 20.3 6.2 36 8.1 SE 4 7 2 4 1015.5 - 0.0
19/09:00pm 22.8 21.2 6.2 34 8.6 SE 4 7 2 4 1015.6 1012.8 0.0
19/08:30pm 23.2 21.5 6.0 33 8.9 ESE 4 7 2 4 1015.5 - 0.0
19/08:00pm 23.9 21.7 5.2 30 9.6 ESE 6 9 3 5 1015.3 - 0.0
19/07:30pm 24.2 22.5 6.0 31 9.5 ESE 4 7 2 4 1015.1 - 0.0
19/07:00pm 24.4 23.0 7.4 33 9.1 ESE 4 7 2 4 1014.5 - 0.0
19/06:30pm 25.2 23.9 7.6 32 9.5 ESE 4 7 2 4 1014.2 - 0.0
19/06:00pm 26.1 24.6 6.9 29 10.3 E 4 6 2 3 1013.9 1011.2 0.0
19/05:30pm 27.3 25.7 6.4 26 11.2 E 4 6 2 3 1013.7 - 0.0
19/05:00pm 28.9 26.3 4.0 20 12.9 ESE 7 15 4 8 1013.5 - 0.0
19/04:30pm 30.3 27.3 2.0 16 14.3 ESE 7 13 4 7 1013.2 - 0.0
19/04:00pm 31.2 27.7 3.3 17 14.5 ESE 11 19 6 10 1013.0 - 0.0
19/03:30pm 31.4 28.1 2.6 16 14.8 SE 9 20 5 11 1012.7 - 0.0
19/03:00pm 31.9 29.3 3.0 16 15.0 E 6 13 3 7 1012.7 1009.9 0.0
19/02:30pm 32.1 29.0 3.4 16 15.0 E 9 19 5 10 1012.7 - 0.0
19/02:00pm 31.9 29.5 4.1 17 14.7 ESE 6 15 3 8 1012.8 - 0.0
19/01:30pm 32.0 29.2 3.2 16 15.0 E 7 19 4 10 1013.1 - 0.0
19/01:00pm 32.2 29.6 4.4 17 14.8 E 7 15 4 8 1013.5 - 0.0
19/12:30pm 31.9 29.4 4.7 18 14.5 ENE 7 17 4 9 1013.9 - 0.0
19/12:00pm 31.4 28.2 3.0 16 14.7 E 9 26 5 14 1014.3 1011.6 0.0
19/11:30am 31.7 28.3 4.0 17 14.6 ESE 11 20 6 11 1014.7 - 0.0
19/11:00am 30.9 27.0 3.3 17 14.3 E 13 26 7 14 1015.3 - 0.0
19/10:30am 30.5 26.7 3.8 18 13.9 ESE 13 26 7 14 1015.9 - 0.0
19/10:00am 29.4 25.5 3.3 19 13.4 ESE 13 24 7 13 1016.5 - 0.0
19/09:30am 29.4 25.9 3.3 19 13.4 ESE 11 20 6 11 1017.0 - 0.0
19/09:00am 28.0 23.9 2.5 19 12.8 ESE 13 19 7 10 1017.2 1014.5 0.0
19/08:30am 27.1 23.4 2.4 20 12.3 ESE 11 20 6 11 1017.6 - 0.0
19/08:00am 25.8 22.1 2.2 21 11.6 ESE 11 22 6 12 1017.3 - 0.0
19/07:30am 24.6 21.4 3.3 25 10.6 ESE 9 19 5 10 1017.1 - 0.0
19/07:00am 23.3 21.4 6.5 34 8.8 ESE 6 11 3 6 1017.0 - 0.0
19/06:30am 21.3 19.3 6.1 37 7.8 ESE 6 9 3 5 1016.8 - 0.0
19/06:00am 19.1 17.8 7.6 47 6.0 ESE 4 7 2 4 1016.7 1014.0 0.0
19/05:30am 18.9 17.2 7.5 47 5.9 ESE 6 9 3 5 1016.5 - 0.0
19/05:00am 18.5 17.5 8.7 53 5.2 E 4 6 2 3 1016.3 - 0.0
19/04:30am 18.4 17.8 9.0 54 5.0 SE 2 4 1 2 1016.1 - 0.0
19/04:00am 18.4 17.1 9.2 55 4.9 SSE 6 7 3 4 1016.1 - 0.0
19/03:30am 18.7 18.2 9.4 54 5.0 SSE 2 4 1 2 1016.2 - 0.0
19/03:00am 19.4 18.5 9.4 52 5.4 SSE 4 7 2 4 1016.2 1013.5 0.0
19/02:30am 19.8 19.4 9.7 52 5.5 ESE 2 6 1 3 1016.3 - 0.0
19/02:00am 20.0 19.3 10.2 53 5.4 ESE 4 6 2 3 1016.0 - 0.0
19/01:30am 20.0 19.8 10.4 54 5.3 SE 2 6 1 3 1016.0 - 0.0
19/01:00am 20.3 19.6 10.1 52 5.6 SE 4 6 2 3 1016.3 - 0.0
19/12:30am 20.9 20.2 10.0 49 6.0 SE 4 6 2 3 1016.5 - 0.0
19/12:00am 21.4 21.1 10.2 49 6.2 SE 2 4 1 2 1016.7 1014.0 0.0
 
Date/Time
WST
Temp
°C
App
Temp
°C
Dew
Point
Rel
Hum
%
Delta-T
°C
Wind Press
QNH
hPa
Press
MSL
hPa
Rain
since 9 am
mm
Dir
 
Spd
km/h
Gust
km/h
Spd
kts
Gust
kts
18/11:30pm 21.5 21.7 10.6 50 6.1 CALM 0 2 0 1 1016.9 - 0.0
18/11:00pm 22.6 21.6 8.8 41 7.5 NNE 4 4 2 2 1017.1 - 0.0
18/10:30pm 22.7 22.0 9.9 44 7.1 SE 4 7 2 4 1017.1 - 0.0
18/10:00pm 23.1 21.9 9.5 42 7.5 SE 6 9 3 5 1017.0 - 0.0
18/09:30pm 24.0 22.6 8.8 38 8.3 ESE 6 11 3 6 1017.0 - 0.0
18/09:00pm 23.9 22.6 9.2 39 8.1 ESE 6 9 3 5 1016.9 1014.2 0.0
18/08:30pm 24.0 23.3 10.1 41 7.8 ESE 4 7 2 4 1016.8 - 0.0
18/08:00pm 24.3 23.6 10.0 40 8.0 SE 4 7 2 4 1016.7 - 0.0
18/07:30pm 25.5 24.1 8.8 34 9.2 ESE 6 9 3 5 1016.6 - 0.0
18/07:00pm 25.8 24.4 9.0 34 9.3 ESE 6 7 3 4 1016.3 - 0.0
18/06:30pm 26.3 25.1 9.6 35 9.4 ESE 6 9 3 5 1015.9 - 0.0
18/06:00pm 27.5 26.9 9.1 31 10.3 E 2 6 1 3 1015.5 1012.7 0.0
18/05:30pm 28.9 27.1 7.1 25 11.9 E 6 11 3 6 1015.2 - 0.0
18/05:00pm 30.0 27.9 6.7 23 12.7 E 7 15 4 8 1014.9 - 0.0
18/04:30pm 30.8 27.9 6.4 21 13.3 E 11 20 6 11 1014.5 - 0.0
18/04:00pm 31.5 28.2 6.5 21 13.7 E 13 26 7 14 1014.1 - 0.0
18/03:30pm 31.8 28.9 6.5 20 13.9 E 11 26 6 14 1014.1 - 0.0

Other Formats:

Comma delimited format used in spreadsheet applications
http://www.bom.gov.au/fwo/IDW60801/IDW60801.94212.axf

JavaScript Object Notation format (JSON) in row-major order
http://www.bom.gov.au/fwo/IDW60801/IDW60801.94212.json